createdAt,value
2022-09-28T00:00:18.934Z,6.10
2022-09-28T00:01:19.063Z,6.80
2022-09-28T00:02:19.005Z,7.40
2022-09-28T00:03:18.873Z,7.60
2022-09-28T00:04:18.869Z,8.10
2022-09-28T00:05:18.883Z,8.40
2022-09-28T00:06:18.828Z,8.90
2022-09-28T00:07:18.821Z,9.40
2022-09-28T00:08:18.803Z,9.10
2022-09-28T00:09:18.811Z,9.10
2022-09-28T00:10:18.801Z,8.80
2022-09-28T00:11:18.776Z,8.10
2022-09-28T00:12:18.752Z,8.30
2022-09-28T00:13:18.762Z,8.80
2022-09-28T00:14:18.748Z,8.00
2022-09-28T00:15:18.731Z,8.40
2022-09-28T00:16:18.741Z,8.60
2022-09-28T00:17:18.691Z,7.70
2022-09-28T00:18:18.695Z,8.20
2022-09-28T00:19:18.672Z,8.10
2022-09-28T00:20:18.668Z,7.40
2022-09-28T00:21:18.655Z,7.20
2022-09-28T00:22:18.659Z,7.50
2022-09-28T00:23:18.620Z,7.20
2022-09-28T00:24:18.607Z,6.80
2022-09-28T00:25:18.621Z,6.30
2022-09-28T00:26:18.598Z,6.50
2022-09-28T00:27:18.565Z,6.50
2022-09-28T00:28:18.557Z,6.50
2022-09-28T00:29:18.632Z,6.30
2022-09-28T00:30:18.565Z,6.80
2022-09-28T00:31:18.574Z,7.00
2022-09-28T00:32:18.497Z,7.10
2022-09-28T00:33:18.492Z,7.80
2022-09-28T00:34:18.482Z,7.70
2022-09-28T00:35:18.504Z,7.80
2022-09-28T00:36:18.485Z,7.90
2022-09-28T00:37:18.433Z,8.20
2022-09-28T00:38:18.416Z,8.60
2022-09-28T00:39:18.493Z,8.70
2022-09-28T00:40:18.453Z,9.00
2022-09-28T00:41:18.383Z,8.50
2022-09-28T00:42:18.363Z,8.40
2022-09-28T00:43:18.366Z,7.60
2022-09-28T00:44:18.346Z,8.40
2022-09-28T00:45:18.344Z,7.70
2022-09-28T00:46:18.408Z,7.10
2022-09-28T00:47:18.304Z,7.40
2022-09-28T00:48:18.289Z,7.50
2022-09-28T00:49:18.405Z,8.20
2022-09-28T00:50:18.276Z,7.80
2022-09-28T00:51:18.257Z,7.80
2022-09-28T00:52:18.232Z,7.50
2022-09-28T00:53:18.224Z,6.90
2022-09-28T00:54:18.220Z,7.40
2022-09-28T00:55:18.220Z,7.50
2022-09-28T00:56:18.186Z,7.40
2022-09-28T00:57:18.177Z,7.60
2022-09-28T00:58:18.158Z,7.90
2022-09-28T00:59:18.195Z,7.60
2022-09-28T01:00:18.144Z,7.80
2022-09-28T01:01:18.200Z,8.10
2022-09-28T01:02:18.158Z,7.50
2022-09-28T01:03:18.117Z,7.90
2022-09-28T01:04:18.077Z,7.90
2022-09-28T01:05:18.094Z,7.70
2022-09-28T01:06:18.053Z,7.90
2022-09-28T01:07:18.049Z,7.40
2022-09-28T01:08:18.027Z,7.60
2022-09-28T01:09:18.204Z,7.50
2022-09-28T01:10:18.019Z,7.60
2022-09-28T01:11:17.994Z,8.00
2022-09-28T01:12:18.060Z,7.20
2022-09-28T01:13:18.000Z,7.70
2022-09-28T01:14:18.045Z,7.70
2022-09-28T01:15:17.959Z,8.00
2022-09-28T01:16:17.966Z,7.80
2022-09-28T01:17:17.923Z,7.90
2022-09-28T01:18:17.912Z,7.40
2022-09-28T01:19:17.990Z,7.50
2022-09-28T01:20:17.871Z,8.00
2022-09-28T01:21:17.936Z,7.70
2022-09-28T01:22:17.880Z,8.50
2022-09-28T01:23:17.878Z,8.00
2022-09-28T01:24:17.837Z,8.00
2022-09-28T01:25:17.832Z,8.30
2022-09-28T01:26:17.791Z,8.10
2022-09-28T01:27:17.800Z,8.20
2022-09-28T01:28:17.798Z,9.00
2022-09-28T01:29:17.973Z,7.60
2022-09-28T01:30:17.756Z,7.90
2022-09-28T01:31:17.789Z,7.90
2022-09-28T01:32:17.748Z,7.90
2022-09-28T01:33:17.708Z,8.00
2022-09-28T01:34:17.693Z,7.60
2022-09-28T01:35:17.683Z,7.80
2022-09-28T01:36:17.708Z,8.20
2022-09-28T01:37:17.659Z,8.50
2022-09-28T01:38:17.648Z,7.90
2022-09-28T01:39:17.728Z,8.50
2022-09-28T01:40:17.665Z,8.40
2022-09-28T01:41:17.635Z,8.00
2022-09-28T01:42:17.598Z,8.00
2022-09-28T01:43:17.586Z,8.10
2022-09-28T01:44:17.592Z,8.10
2022-09-28T01:45:17.562Z,8.30
2022-09-28T01:46:17.583Z,7.50
2022-09-28T01:47:17.561Z,7.50
2022-09-28T01:48:17.537Z,7.80
2022-09-28T01:49:17.553Z,8.10
2022-09-28T01:50:17.487Z,8.00
2022-09-28T01:51:17.507Z,8.50
2022-09-28T01:52:17.515Z,7.80
2022-09-28T01:53:17.458Z,8.30
2022-09-28T01:54:17.446Z,8.20
2022-09-28T01:55:17.452Z,8.20
2022-09-28T01:56:17.424Z,8.00
2022-09-28T01:57:17.401Z,8.20
2022-09-28T01:58:17.383Z,8.20
2022-09-28T01:59:17.424Z,8.40
2022-09-28T02:00:17.366Z,8.40
2022-09-28T02:01:17.431Z,8.20
2022-09-28T02:02:17.386Z,8.50
2022-09-28T02:03:17.342Z,8.20
2022-09-28T02:04:17.314Z,8.60
2022-09-28T02:05:17.352Z,8.80
2022-09-28T02:06:17.298Z,8.50
2022-09-28T02:07:17.277Z,8.40
2022-09-28T02:08:17.250Z,8.60
2022-09-28T02:09:17.425Z,8.50
2022-09-28T02:10:17.233Z,8.40
2022-09-28T02:11:17.253Z,8.50
2022-09-28T02:12:17.204Z,8.60
2022-09-28T02:13:17.195Z,8.80
2022-09-28T02:14:17.190Z,8.50
2022-09-28T02:15:17.185Z,8.60
2022-09-28T02:16:17.259Z,9.40
2022-09-28T02:17:17.152Z,8.80
2022-09-28T02:18:17.169Z,9.20
2022-09-28T02:19:17.262Z,9.30
2022-09-28T02:20:17.159Z,8.80
2022-09-28T02:21:17.095Z,9.30
2022-09-28T02:22:17.083Z,9.20
2022-09-28T02:23:17.093Z,9.20
2022-09-28T02:24:21.223Z,9.50
2022-09-28T02:25:17.055Z,10.20
2022-09-28T02:26:17.058Z,10.00
2022-09-28T02:27:17.044Z,9.80
2022-09-28T02:28:17.005Z,9.80
2022-09-28T02:29:17.093Z,9.90
2022-09-28T02:30:16.973Z,9.70
2022-09-28T02:31:16.998Z,10.40
2022-09-28T02:32:16.949Z,9.70
2022-09-28T02:33:16.950Z,10.40
2022-09-28T02:34:16.922Z,10.80
2022-09-28T02:35:16.939Z,9.80
2022-09-28T02:36:16.908Z,9.90
2022-09-28T02:37:16.913Z,9.90
2022-09-28T02:38:16.877Z,10.80
2022-09-28T02:39:16.997Z,11.40
2022-09-28T02:40:16.895Z,10.90
2022-09-28T02:41:16.846Z,11.10
2022-09-28T02:42:16.819Z,12.00
2022-09-28T02:43:16.803Z,11.40
2022-09-28T02:44:16.811Z,12.00
2022-09-28T02:45:16.777Z,11.00
2022-09-28T02:46:16.853Z,12.60
2022-09-28T02:47:16.771Z,12.00
2022-09-28T02:48:19.158Z,12.70
2022-09-28T02:49:30.396Z,12.10
2022-09-28T02:50:16.727Z,12.00
2022-09-28T02:51:16.713Z,13.00
2022-09-28T02:52:16.694Z,12.90
2022-09-28T02:53:16.674Z,13.30
2022-09-28T02:54:18.795Z,13.50
2022-09-28T02:55:16.665Z,13.70
2022-09-28T02:56:16.651Z,12.80
2022-09-28T02:57:16.626Z,13.50
2022-09-28T02:58:16.618Z,14.50
2022-09-28T02:59:17.290Z,14.70
2022-09-28T03:00:16.593Z,15.40
2022-09-28T03:01:16.626Z,15.00
2022-09-28T03:02:16.630Z,15.40
2022-09-28T03:03:16.562Z,15.00
2022-09-28T03:04:16.542Z,15.90
2022-09-28T03:05:16.521Z,17.20
2022-09-28T03:06:16.543Z,17.00
2022-09-28T03:07:16.533Z,17.70
2022-09-28T03:08:16.503Z,17.40
2022-09-28T03:09:16.554Z,18.50
2022-09-28T03:10:16.473Z,19.80
2022-09-28T03:11:16.447Z,19.50
2022-09-28T03:12:16.432Z,19.70
2022-09-28T03:13:16.432Z,20.20
2022-09-28T03:14:16.408Z,19.60
2022-09-28T03:15:16.417Z,20.30
2022-09-28T03:16:16.468Z,20.80
2022-09-28T03:17:16.402Z,20.70
2022-09-28T03:18:16.370Z,21.70
2022-09-28T03:19:16.482Z,21.60
2022-09-28T03:20:16.333Z,22.50
2022-09-28T03:21:16.344Z,22.40
2022-09-28T03:22:16.306Z,23.00
2022-09-28T03:23:25.149Z,23.50
2022-09-28T03:24:16.282Z,23.10
2022-09-28T03:25:16.269Z,22.50
2022-09-28T03:26:16.272Z,22.90
2022-09-28T03:27:16.231Z,23.90
2022-09-28T03:28:16.228Z,23.00
2022-09-28T03:29:16.281Z,23.60
2022-09-28T03:30:16.206Z,22.90
2022-09-28T03:31:16.261Z,24.10
2022-09-28T03:32:16.789Z,25.20
2022-09-28T03:33:16.154Z,24.80
2022-09-28T03:34:16.148Z,24.30
2022-09-28T03:35:16.157Z,24.30
2022-09-28T03:36:16.189Z,22.70
2022-09-28T03:37:16.109Z,24.80
2022-09-28T03:38:16.113Z,24.10
2022-09-28T03:39:16.179Z,23.90
2022-09-28T03:40:16.122Z,23.90
2022-09-28T03:41:16.084Z,24.20
2022-09-28T03:42:16.048Z,23.90
2022-09-28T03:43:16.032Z,23.70
2022-09-28T03:44:16.037Z,24.70
2022-09-28T03:45:16.069Z,24.50
2022-09-28T03:46:16.096Z,25.00
2022-09-28T03:47:16.018Z,25.00
2022-09-28T03:48:17.208Z,26.00
2022-09-28T03:49:15.967Z,25.10
2022-09-28T03:50:16.012Z,26.90
2022-09-28T03:51:15.931Z,26.10
2022-09-28T03:52:15.914Z,26.00
2022-09-28T03:53:15.909Z,28.30
2022-09-28T03:54:15.896Z,25.70
2022-09-28T03:55:15.902Z,25.90
2022-09-28T03:56:15.916Z,26.70
2022-09-28T03:57:15.865Z,26.20
2022-09-28T03:58:15.857Z,27.70
2022-09-28T03:59:15.836Z,26.90
2022-09-28T04:00:15.812Z,27.10
2022-09-28T04:01:17.527Z,27.70
2022-09-28T04:02:15.836Z,26.10
2022-09-28T04:03:15.797Z,27.70
2022-09-28T04:04:15.786Z,26.90
2022-09-28T04:05:15.769Z,27.60
2022-09-28T04:06:15.768Z,29.00
2022-09-28T04:07:15.745Z,29.30
2022-09-28T04:08:15.743Z,28.70
2022-09-28T04:09:15.764Z,28.10
2022-09-28T04:10:15.713Z,29.50
2022-09-28T04:11:15.765Z,28.20
2022-09-28T04:12:15.671Z,29.20
2022-09-28T04:13:15.647Z,29.80
2022-09-28T04:14:15.631Z,29.00
2022-09-28T04:15:15.627Z,29.20
2022-09-28T04:16:15.681Z,29.40
2022-09-28T04:17:15.602Z,29.10
2022-09-28T04:18:15.592Z,28.20
2022-09-28T04:19:15.647Z,27.80
2022-09-28T04:20:15.557Z,27.40
2022-09-28T04:21:15.557Z,27.30
2022-09-28T04:22:15.526Z,27.00
2022-09-28T04:23:15.522Z,28.30
2022-09-28T04:24:15.505Z,26.60
2022-09-28T04:25:15.496Z,27.00
2022-09-28T04:26:15.500Z,27.40
2022-09-28T04:27:15.484Z,28.10
2022-09-28T04:28:15.465Z,27.90
2022-09-28T04:29:15.438Z,29.80
2022-09-28T04:30:15.432Z,30.20
2022-09-28T04:31:15.510Z,30.30
2022-09-28T04:32:15.574Z,30.70
2022-09-28T04:33:15.389Z,32.70
2022-09-28T04:34:15.384Z,32.70
2022-09-28T04:35:15.376Z,33.60
2022-09-28T04:36:15.364Z,34.00
2022-09-28T04:37:15.349Z,33.90
2022-09-28T04:38:15.524Z,35.10
2022-09-28T04:39:15.386Z,35.00
2022-09-28T04:40:15.392Z,34.90
2022-09-28T04:41:15.726Z,35.10
2022-09-28T04:42:15.276Z,36.50
2022-09-28T04:43:15.253Z,36.80
2022-09-28T04:44:15.247Z,36.00
2022-09-28T04:45:15.232Z,37.10
2022-09-28T04:46:15.391Z,36.80
2022-09-28T04:47:15.228Z,37.00
2022-09-28T04:48:15.204Z,37.40
2022-09-28T04:49:15.218Z,37.00
2022-09-28T04:50:15.196Z,35.50
2022-09-28T04:51:15.207Z,37.40
2022-09-28T04:52:18.221Z,38.10
2022-09-28T04:53:15.149Z,36.80
2022-09-28T04:54:15.114Z,36.90
2022-09-28T04:55:15.098Z,36.50
2022-09-28T04:56:15.177Z,36.50
2022-09-28T04:57:15.074Z,36.90
2022-09-28T04:58:15.091Z,37.80
2022-09-28T04:59:15.125Z,36.50
2022-09-28T05:00:15.085Z,36.50
2022-09-28T05:01:15.006Z,37.10
2022-09-28T05:02:15.222Z,36.20
2022-09-28T05:03:14.984Z,37.00
2022-09-28T05:04:14.989Z,37.40
2022-09-28T05:05:14.984Z,36.50
2022-09-28T05:06:14.932Z,37.20
2022-09-28T05:07:14.894Z,36.20
2022-09-28T05:08:14.972Z,37.30
2022-09-28T05:09:14.969Z,36.40
2022-09-28T05:10:14.882Z,35.70
2022-09-28T05:11:14.877Z,35.80
2022-09-28T05:12:14.829Z,34.50
2022-09-28T05:13:14.931Z,34.30
2022-09-28T05:14:14.814Z,33.40
2022-09-28T05:15:14.803Z,32.50
2022-09-28T05:16:14.856Z,32.40
2022-09-28T05:17:14.806Z,31.80
2022-09-28T05:18:14.764Z,30.80
2022-09-28T05:19:14.903Z,30.50
2022-09-28T05:20:14.741Z,30.80
2022-09-28T05:21:14.725Z,31.20
2022-09-28T05:22:14.757Z,29.90
2022-09-28T05:23:14.689Z,30.30
2022-09-28T05:24:14.674Z,30.00
2022-09-28T05:25:14.699Z,29.80
2022-09-28T05:26:14.686Z,30.40
2022-09-28T05:27:14.634Z,30.00
2022-09-28T05:28:14.701Z,28.40
2022-09-28T05:29:14.744Z,28.40
2022-09-28T05:30:14.618Z,27.80
2022-09-28T05:31:14.624Z,28.30
2022-09-28T05:32:14.607Z,28.30
2022-09-28T05:33:14.563Z,27.20
2022-09-28T05:34:14.552Z,28.00
2022-09-28T05:35:14.543Z,28.40
2022-09-28T05:36:14.541Z,26.30
2022-09-28T05:37:14.527Z,25.80
2022-09-28T05:38:14.497Z,27.60
2022-09-28T05:39:14.542Z,27.20
2022-09-28T05:40:14.473Z,27.10
2022-09-28T05:41:14.465Z,25.50
2022-09-28T05:42:14.447Z,27.10
2022-09-28T05:43:14.459Z,26.50
2022-09-28T05:44:14.483Z,26.40
2022-09-28T05:45:14.410Z,26.60
2022-09-28T05:46:14.490Z,26.40
2022-09-28T05:47:14.402Z,26.70
2022-09-28T05:48:14.368Z,25.80
2022-09-28T05:49:14.359Z,25.60
2022-09-28T05:50:14.356Z,25.40
2022-09-28T05:51:14.359Z,24.70
2022-09-28T05:52:14.354Z,25.10
2022-09-28T05:53:14.302Z,25.00
2022-09-28T05:54:14.332Z,24.70
2022-09-28T05:55:14.321Z,26.00
2022-09-28T05:56:14.333Z,25.60
2022-09-28T05:57:14.257Z,25.00
2022-09-28T05:58:14.262Z,25.10
2022-09-28T05:59:14.229Z,23.30
2022-09-28T06:00:14.220Z,23.00
2022-09-28T06:01:14.350Z,22.60
2022-09-28T06:02:14.238Z,22.20
2022-09-28T06:03:14.188Z,23.40
2022-09-28T06:04:14.391Z,23.20
2022-09-28T06:05:14.179Z,23.00
2022-09-28T06:06:14.135Z,22.50
2022-09-28T06:07:14.154Z,22.90
2022-09-28T06:08:14.166Z,22.50
2022-09-28T06:09:14.125Z,23.00
2022-09-28T06:10:14.108Z,22.40
2022-09-28T06:11:14.100Z,22.20
2022-09-28T06:12:14.145Z,22.10
2022-09-28T06:13:14.066Z,22.70
2022-09-28T06:14:14.083Z,22.30
2022-09-28T06:15:14.024Z,21.90
2022-09-28T06:16:14.071Z,21.70
2022-09-28T06:17:14.035Z,20.90
2022-09-28T06:18:14.013Z,20.30
2022-09-28T06:19:14.022Z,20.50
2022-09-28T06:20:13.975Z,20.90
2022-09-28T06:21:13.965Z,19.40
2022-09-28T06:22:14.636Z,19.50
2022-09-28T06:23:13.954Z,19.50
2022-09-28T06:24:13.989Z,19.90
2022-09-28T06:25:13.975Z,20.10
2022-09-28T06:26:13.883Z,19.10
2022-09-28T06:27:13.879Z,18.00
2022-09-28T06:28:13.883Z,19.30
2022-09-28T06:29:18.707Z,18.60
2022-09-28T06:30:13.849Z,19.00
2022-09-28T06:31:13.921Z,18.30
2022-09-28T06:32:13.803Z,17.00
2022-09-28T06:33:13.784Z,17.10
2022-09-28T06:34:13.912Z,16.90
2022-09-28T06:35:13.824Z,16.00
2022-09-28T06:36:15.984Z,15.90
2022-09-28T06:37:13.742Z,15.50
2022-09-28T06:38:13.747Z,14.50
2022-09-28T06:39:13.714Z,15.30
2022-09-28T06:40:13.735Z,15.20
2022-09-28T06:41:13.701Z,14.90
2022-09-28T06:42:13.678Z,14.60
2022-09-28T06:43:13.658Z,14.70
2022-09-28T06:44:13.729Z,14.50
2022-09-28T06:45:13.656Z,14.30
2022-09-28T06:46:13.780Z,13.60
2022-09-28T06:47:13.615Z,13.60
2022-09-28T06:48:13.597Z,13.30
2022-09-28T06:49:18.636Z,13.30
2022-09-28T06:50:13.601Z,12.70
2022-09-28T06:51:13.610Z,13.00
2022-09-28T06:52:13.559Z,12.90
2022-09-28T06:53:13.538Z,12.80
2022-09-28T06:54:13.602Z,12.60
2022-09-28T06:55:13.518Z,12.80
2022-09-28T06:56:13.507Z,13.10
2022-09-28T06:57:13.482Z,13.10
2022-09-28T06:58:13.466Z,12.20
2022-09-28T06:59:13.455Z,12.60
2022-09-28T07:00:13.666Z,12.20
2022-09-28T07:01:13.644Z,12.40
2022-09-28T07:02:13.472Z,12.90
2022-09-28T07:03:13.415Z,11.50
2022-09-28T07:04:13.409Z,12.10
2022-09-28T07:05:13.405Z,11.70
2022-09-28T07:06:13.393Z,12.30
2022-09-28T07:07:13.350Z,11.50
2022-09-28T07:08:13.347Z,12.00
2022-09-28T07:09:30.057Z,11.90
2022-09-28T07:10:13.330Z,12.00
2022-09-28T07:11:13.295Z,12.20
2022-09-28T07:12:13.287Z,12.20
2022-09-28T07:13:30.940Z,12.00
2022-09-28T07:14:22.543Z,11.80
2022-09-28T07:15:13.297Z,12.50
2022-09-28T07:16:13.264Z,12.30
2022-09-28T07:17:14.671Z,12.10
2022-09-28T07:18:13.232Z,12.00
2022-09-28T07:19:13.192Z,11.90
2022-09-28T07:20:18.803Z,11.30
2022-09-28T07:21:24.441Z,11.50
2022-09-28T07:22:18.208Z,11.50
2022-09-28T07:23:19.074Z,12.00
2022-09-28T07:24:13.132Z,10.70
2022-09-28T07:25:13.133Z,11.80
2022-09-28T07:26:13.116Z,11.30
2022-09-28T07:27:13.096Z,11.20
2022-09-28T07:28:13.071Z,11.60
2022-09-28T07:29:13.066Z,11.20
2022-09-28T07:30:13.116Z,11.50
2022-09-28T07:31:13.121Z,10.50
2022-09-28T07:32:13.025Z,9.50
2022-09-28T07:33:13.020Z,10.00
2022-09-28T07:34:13.013Z,10.50
2022-09-28T07:35:12.990Z,10.10
2022-09-28T07:36:12.989Z,9.90
2022-09-28T07:37:12.982Z,9.90
2022-09-28T07:38:12.943Z,10.30
2022-09-28T07:39:12.939Z,10.20
2022-09-28T07:40:12.918Z,10.10
2022-09-28T07:41:13.143Z,10.30
2022-09-28T07:42:12.930Z,10.00
2022-09-28T07:43:12.881Z,9.40
2022-09-28T07:44:12.890Z,9.30
2022-09-28T07:45:12.861Z,9.10
2022-09-28T07:46:12.978Z,9.40
2022-09-28T07:47:12.842Z,9.00
2022-09-28T07:48:12.837Z,9.30
2022-09-28T07:49:12.861Z,9.20
2022-09-28T07:50:12.810Z,9.50
2022-09-28T07:51:12.781Z,9.00
2022-09-28T07:52:12.763Z,9.00
2022-09-28T07:53:12.764Z,9.00
2022-09-28T07:54:12.752Z,8.80
2022-09-28T07:55:12.752Z,8.80
2022-09-28T07:56:12.724Z,9.00
2022-09-28T07:57:12.716Z,8.60
2022-09-28T07:58:12.720Z,9.10
2022-09-28T07:59:18.883Z,8.30
2022-09-28T08:00:12.697Z,8.90
2022-09-28T08:01:12.749Z,8.30
2022-09-28T08:02:12.755Z,8.20
2022-09-28T08:03:12.718Z,8.60
2022-09-28T08:04:12.642Z,8.40
2022-09-28T08:05:12.665Z,8.40
2022-09-28T08:10:01.811Z,8.90
2022-09-28T08:11:03.121Z,8.90
2022-09-28T08:12:02.765Z,9.10
2022-09-28T08:13:03.053Z,8.60
2022-09-28T08:14:02.713Z,8.70
2022-09-28T08:15:02.724Z,8.60
2022-09-28T08:16:02.703Z,8.40
2022-09-28T08:17:02.687Z,8.60
2022-09-28T08:18:03.069Z,8.60
2022-09-28T08:19:02.677Z,8.60
2022-09-28T08:20:02.661Z,8.80
2022-09-28T08:21:02.639Z,8.50
2022-09-28T08:22:02.661Z,8.40
2022-09-28T08:23:02.609Z,8.60
2022-09-28T08:24:02.610Z,8.60
2022-09-28T08:25:02.576Z,8.60
2022-09-28T08:26:02.583Z,8.40
2022-09-28T08:27:02.576Z,8.60
2022-09-28T08:28:02.530Z,8.70
2022-09-28T08:29:02.531Z,8.70
2022-09-28T08:30:02.514Z,8.10
2022-09-28T08:31:02.617Z,9.40
2022-09-28T08:32:02.490Z,9.30
2022-09-28T08:33:02.472Z,9.30
2022-09-28T08:34:02.468Z,8.80
2022-09-28T08:35:02.456Z,8.90
2022-09-28T08:36:02.458Z,8.40
2022-09-28T08:37:02.423Z,8.60
2022-09-28T08:38:02.433Z,8.20
2022-09-28T08:39:02.396Z,8.70
2022-09-28T08:40:02.413Z,8.70
2022-09-28T08:41:02.453Z,8.30
2022-09-28T08:42:02.468Z,8.80
2022-09-28T08:43:02.382Z,8.70
2022-09-28T08:44:02.338Z,8.30
2022-09-28T08:45:02.356Z,8.30
2022-09-28T08:46:02.432Z,8.00
2022-09-28T08:47:02.310Z,8.30
2022-09-28T08:48:02.296Z,7.50
2022-09-28T08:49:23.637Z,7.30
2022-09-28T08:50:02.321Z,7.40
2022-09-28T08:51:02.266Z,7.30
2022-09-28T08:52:02.251Z,7.40
2022-09-28T08:53:02.260Z,7.10
2022-09-28T08:54:02.225Z,7.40
2022-09-28T08:55:02.204Z,7.40
2022-09-28T08:56:02.241Z,7.30
2022-09-28T08:57:02.216Z,7.00
2022-09-28T08:58:02.185Z,7.00
2022-09-28T08:59:02.159Z,7.30
2022-09-28T09:00:02.156Z,7.40
2022-09-28T09:01:02.178Z,7.00
2022-09-28T09:02:02.273Z,7.40
2022-09-28T09:03:02.133Z,6.50
2022-09-28T09:04:02.113Z,7.10
2022-09-28T09:05:02.253Z,6.50
2022-09-28T09:06:02.084Z,6.50
2022-09-28T09:07:02.140Z,7.00
2022-09-28T09:08:02.055Z,7.00
2022-09-28T09:09:02.034Z,6.60
2022-09-28T09:10:02.042Z,6.50
2022-09-28T09:11:02.008Z,6.70
2022-09-28T09:12:02.000Z,5.80
2022-09-28T09:13:01.975Z,6.20
2022-09-28T09:14:01.971Z,5.90
2022-09-28T09:15:01.983Z,5.80
2022-09-28T09:16:01.940Z,5.80
2022-09-28T09:17:02.037Z,5.60
2022-09-28T09:18:01.922Z,5.90
2022-09-28T09:19:01.905Z,5.60
2022-09-28T09:20:01.913Z,6.50
2022-09-28T09:21:01.887Z,5.50
2022-09-28T09:22:01.913Z,5.40
2022-09-28T09:23:01.879Z,5.40
2022-09-28T09:24:01.841Z,5.90
2022-09-28T09:25:01.838Z,5.50
2022-09-28T09:26:01.821Z,5.60
2022-09-28T09:27:01.800Z,5.30
2022-09-28T09:28:01.802Z,5.20
2022-09-28T09:29:01.777Z,5.40
2022-09-28T09:30:01.799Z,5.20
2022-09-28T09:31:01.784Z,5.20
2022-09-28T09:32:01.747Z,5.30
2022-09-28T09:33:01.728Z,5.10
2022-09-28T09:34:01.750Z,5.50
2022-09-28T09:35:01.730Z,5.00
2022-09-28T09:36:01.691Z,5.00
2022-09-28T09:37:01.729Z,5.50
2022-09-28T09:38:01.669Z,5.90
2022-09-28T09:39:01.651Z,5.30
2022-09-28T09:40:01.673Z,5.40
2022-09-28T09:41:01.810Z,5.20
2022-09-28T09:42:01.620Z,5.10
2022-09-28T09:43:01.638Z,5.00
2022-09-28T09:44:01.589Z,4.80
2022-09-28T09:45:01.608Z,4.80
2022-09-28T09:46:01.627Z,4.70
2022-09-28T09:47:01.561Z,4.80
2022-09-28T09:48:01.550Z,4.60
2022-09-28T09:49:44.559Z,4.80
2022-09-28T09:50:05.324Z,5.10
2022-09-28T09:51:04.145Z,4.50
2022-09-28T09:52:01.497Z,4.20
2022-09-28T09:53:01.473Z,4.80
2022-09-28T09:54:01.470Z,4.20
2022-09-28T09:55:01.445Z,4.70
2022-09-28T09:56:01.452Z,4.30
2022-09-28T09:57:01.426Z,4.50
2022-09-28T09:58:01.424Z,4.40
2022-09-28T09:59:01.407Z,4.30
2022-09-28T10:00:01.398Z,4.10
2022-09-28T10:01:01.448Z,4.10
2022-09-28T10:02:01.426Z,5.10
2022-09-28T10:03:01.365Z,4.50
2022-09-28T10:04:01.362Z,4.30
2022-09-28T10:05:01.321Z,4.00
2022-09-28T10:06:01.333Z,3.80
2022-09-28T10:07:01.300Z,3.40
2022-09-28T10:08:01.307Z,4.10
2022-09-28T10:09:01.300Z,3.70
2022-09-28T10:10:01.265Z,3.60
2022-09-28T10:11:01.259Z,3.80
2022-09-28T10:12:01.259Z,3.60
2022-09-28T10:13:01.222Z,3.80
2022-09-28T10:14:01.211Z,3.60
2022-09-28T10:15:01.209Z,4.10
2022-09-28T10:16:01.206Z,3.70
2022-09-28T10:17:01.224Z,3.90
2022-09-28T10:18:01.167Z,4.40
2022-09-28T10:19:01.155Z,3.80
2022-09-28T10:20:01.145Z,3.80
2022-09-28T10:21:01.149Z,3.50
2022-09-28T10:22:01.119Z,4.00
2022-09-28T10:23:01.111Z,3.60
2022-09-28T10:24:01.106Z,3.40
2022-09-28T10:25:01.096Z,3.50
2022-09-28T10:26:01.075Z,3.20
2022-09-28T10:27:01.063Z,3.50
2022-09-28T10:28:01.038Z,3.40
2022-09-28T10:29:01.024Z,3.10
2022-09-28T10:30:01.031Z,3.10
2022-09-28T10:31:01.128Z,3.10
2022-09-28T10:32:00.982Z,3.50
2022-09-28T10:33:00.959Z,3.10
2022-09-28T10:34:00.950Z,3.50
2022-09-28T10:35:00.969Z,2.90
2022-09-28T10:36:00.937Z,3.10
2022-09-28T10:37:00.914Z,3.00
2022-09-28T10:38:00.910Z,3.30
2022-09-28T10:39:00.903Z,2.90
2022-09-28T10:40:00.945Z,3.20
2022-09-28T10:41:00.938Z,3.40
2022-09-28T10:42:00.857Z,3.60
2022-09-28T10:43:00.834Z,3.40
2022-09-28T10:44:00.822Z,3.60
2022-09-28T10:45:00.851Z,3.40
2022-09-28T10:46:00.918Z,3.30
2022-09-28T10:47:00.803Z,3.10
2022-09-28T10:48:00.788Z,3.10
2022-09-28T10:49:00.755Z,3.10
2022-09-28T10:50:00.788Z,3.00
2022-09-28T10:51:00.735Z,2.90
2022-09-28T10:52:00.806Z,2.90
2022-09-28T10:53:00.723Z,3.20
2022-09-28T10:54:00.708Z,3.00
2022-09-28T10:55:00.699Z,2.80
2022-09-28T10:56:00.689Z,3.00
2022-09-28T10:57:00.659Z,2.80
2022-09-28T10:58:00.664Z,3.10
2022-09-28T10:59:00.655Z,3.30
2022-09-28T11:00:00.641Z,3.00
2022-09-28T11:01:00.650Z,3.20
2022-09-28T11:02:00.638Z,3.10
2022-09-28T11:03:00.680Z,3.00
2022-09-28T11:04:00.588Z,2.80
2022-09-28T11:05:00.576Z,3.10
2022-09-28T11:06:00.541Z,3.00
2022-09-28T11:08:00.555Z,2.90
2022-09-28T11:09:00.513Z,3.10
2022-09-28T11:10:00.522Z,3.30
2022-09-28T11:11:00.473Z,2.90
2022-09-28T11:12:00.475Z,3.30
2022-09-28T11:13:00.456Z,3.20
2022-09-28T11:14:00.446Z,3.30
2022-09-28T11:15:00.442Z,3.20
2022-09-28T11:16:00.413Z,3.30
2022-09-28T11:17:00.444Z,3.10
2022-09-28T11:18:00.395Z,3.10
2022-09-28T11:19:00.374Z,3.40
2022-09-28T11:20:00.397Z,3.20
2022-09-28T11:21:00.347Z,3.70
2022-09-28T11:22:00.352Z,3.20
2022-09-28T11:23:00.391Z,3.20
2022-09-28T11:24:00.343Z,3.20
2022-09-28T11:25:00.401Z,3.90
2022-09-28T11:26:00.290Z,3.60
2022-09-28T11:27:00.425Z,3.20
2022-09-28T11:28:00.261Z,3.10
2022-09-28T11:29:00.240Z,3.00
2022-09-28T11:30:00.253Z,3.60
2022-09-28T11:31:00.301Z,3.20
2022-09-28T11:32:00.215Z,3.00
2022-09-28T11:33:00.193Z,3.10
2022-09-28T11:34:00.190Z,3.10
2022-09-28T11:35:00.543Z,3.20
2022-09-28T11:36:00.168Z,2.90
2022-09-28T11:37:01.830Z,3.00
2022-09-28T11:38:00.144Z,3.20
2022-09-28T11:39:00.139Z,2.90
2022-09-28T11:40:00.143Z,2.90
2022-09-28T11:41:00.126Z,3.00
2022-09-28T11:42:00.105Z,3.10
2022-09-28T11:43:00.158Z,3.10
2022-09-28T11:44:00.083Z,3.00
2022-09-28T11:45:00.081Z,3.00
2022-09-28T11:46:00.090Z,2.90
2022-09-28T11:47:00.031Z,3.50
2022-09-28T11:48:00.004Z,2.90
2022-09-28T11:49:00.013Z,3.00
2022-09-28T11:49:59.987Z,2.80
2022-09-28T11:50:59.970Z,2.80
2022-09-28T11:51:59.969Z,3.00
2022-09-28T11:52:59.964Z,3.20
2022-09-28T11:53:59.965Z,2.80
2022-09-28T11:54:59.919Z,3.10
2022-09-28T11:55:59.906Z,3.00
2022-09-28T11:56:59.905Z,2.90
2022-09-28T11:57:59.919Z,3.00
2022-09-28T11:58:59.885Z,2.70
2022-09-28T11:59:59.851Z,2.80
2022-09-28T12:00:59.839Z,2.60
2022-09-28T12:01:59.907Z,2.90
2022-09-28T12:02:59.934Z,2.80
2022-09-28T12:03:59.841Z,2.60
2022-09-28T12:04:59.792Z,2.60
2022-09-28T12:05:59.819Z,2.40
2022-09-28T12:06:59.762Z,3.10
2022-09-28T12:07:59.751Z,2.90
2022-09-28T12:08:59.754Z,3.10
2022-09-28T12:09:59.736Z,3.10
2022-09-28T12:10:59.707Z,2.90
2022-09-28T12:11:59.698Z,3.20
2022-09-28T12:12:59.686Z,3.00
2022-09-28T12:13:59.708Z,2.80
2022-09-28T12:14:59.649Z,2.80
2022-09-28T12:16:27.302Z,3.00
2022-09-28T12:17:08.242Z,2.90
2022-09-28T12:17:59.678Z,2.70
2022-09-28T12:19:59.596Z,2.80
2022-09-28T12:21:04.426Z,2.50
2022-09-28T12:21:59.571Z,2.70
2022-09-28T12:22:59.553Z,2.40
2022-09-28T12:23:59.590Z,2.50
2022-09-28T12:24:59.515Z,2.50
2022-09-28T12:25:59.519Z,2.70
2022-09-28T12:26:59.545Z,2.90
2022-09-28T12:27:59.497Z,2.90
2022-09-28T12:28:59.615Z,3.10
2022-09-28T12:29:59.457Z,3.80
2022-09-28T12:30:59.455Z,3.10
2022-09-28T12:31:59.439Z,2.90
2022-09-28T12:32:59.432Z,2.90
2022-09-28T12:33:59.477Z,3.30
2022-09-28T12:34:59.394Z,3.20
2022-09-28T12:35:59.401Z,3.20
2022-09-28T12:36:59.376Z,3.10
2022-09-28T12:37:59.378Z,2.60
2022-09-28T12:39:21.793Z,2.80
2022-09-28T12:39:59.937Z,2.70
2022-09-28T12:40:59.361Z,2.60
2022-09-28T12:41:59.314Z,2.70
2022-09-28T12:42:59.298Z,3.10
2022-09-28T12:43:59.301Z,3.00
2022-09-28T12:44:59.732Z,2.70
2022-09-28T12:46:11.585Z,3.40
2022-09-28T12:46:59.307Z,3.10
2022-09-28T12:47:59.233Z,3.30
2022-09-28T12:49:47.329Z,2.90
2022-09-28T12:50:59.421Z,2.90
2022-09-28T12:51:59.173Z,2.80
2022-09-28T12:53:02.266Z,2.70
2022-09-28T12:53:59.173Z,3.00
2022-09-28T12:54:59.166Z,2.60
2022-09-28T12:55:59.131Z,2.40
2022-09-28T12:56:59.126Z,2.70
2022-09-28T12:57:59.237Z,2.70
2022-09-28T12:58:59.113Z,2.90
2022-09-28T12:59:59.079Z,2.80
2022-09-28T13:00:59.118Z,3.00
2022-09-28T13:01:59.146Z,2.50
2022-09-28T13:02:59.122Z,2.40
2022-09-28T13:03:59.170Z,2.80
2022-09-28T13:04:59.023Z,2.20
2022-09-28T13:05:58.995Z,2.30
2022-09-28T13:06:58.997Z,2.00
2022-09-28T13:07:58.957Z,2.40
2022-09-28T13:08:59.029Z,2.30
2022-09-28T13:09:58.969Z,2.30
2022-09-28T13:10:58.962Z,2.50
2022-09-28T13:11:58.911Z,2.30
2022-09-28T13:12:58.941Z,2.30
2022-09-28T13:13:58.914Z,2.10
2022-09-28T13:19:58.057Z,2.30